EPWA/WAW METAR and TAF weather

Enter ICAO airport designator
Station Type Date Time Source
EPWA METAR 2018/12/12 05:00 UTC NOAA

EPWA 120500Z 04006KT 8000 SCT005 01/M00 Q1017 TEMPO BKN005


Station Type Date Time Source
EPWA Decoded METAR 2018/12/12 05:00 UTC NOAA

Warszawa-Okecie, Poland (EPWA) 52-10N 020-58E 107M
Dec 12, 2018 - 12:00 AM EST / 2018.12.12 0500 UTC
Wind: from the NE (040 degrees) at 7 MPH (6 KT):0
Visibility: 4 mile(s):0
Sky conditions: partly cloudy
Temperature: 33 F (1 C)
Windchill: 26 F (-3 C):1
Dew Point: 32 F (0 C)
Relative Humidity: 93%
Pressure (altimeter): 30.03 in. Hg (1017 hPa)
ob: EPWA 120500Z 04006KT 8000 SCT005 01/M00 Q1017 TEMPO BKN005
cycle: 5

Station Type Date Time Source
EPWA TAF 2018/12/12 03:37 UTC NOAA

TAF EPWA 120230Z 1203/1303 04005KT 7000 BKN025 PROB40
TEMPO 1203/1208 4000 BR BKN005 PROB40
TEMPO 1209/1215 4000 -SN BKN005 BKN012
TEMPO 1215/1303 2500 SN SNRA BR BKN003 BKN010


Example: see airport list